VOI110 MMMX-MMUN
Flight info
| Callsign | VOI110 |
|---|---|
| Flight time | 2h 0m |
| Altitude | 35000 |
| Route | UKUNO3A UKUNO UT108 TEVET GOTAS DANIS UT65 PAULE PAULE3G |
| Aircraft | A320/M-SDE2E3FGHIJ1RWXY/C |
Departure
| Time | 2026-05-07 02:38 |
|---|---|
| Airport | Mexico City Benito Juárez International Airport (MMMX) |
Arrival
| Time | 2026-05-07 04:39 |
|---|---|
| Airport | Cancún International Airport (MMUN) |
| Time | Latitude | Longitude | Altitude | Speed | Heading |
|---|---|---|---|---|---|
| 2026-05-07 01:24 | 19.43299 | -99.08521 | 7301 ft | 0 kts | 326° |
| 2026-05-07 02:22 | 19.43293 | -99.08517 | 7301 ft | 1 kts | 326° |
| 2026-05-07 02:23 | 19.43287 | -99.08512 | 7301 ft | 1 kts | 326° |
| 2026-05-07 02:23 | 19.43280 | -99.08507 | 7301 ft | 1 kts | 326° |
| 2026-05-07 02:23 | 19.43274 | -99.08503 | 7301 ft | 1 kts | 326° |
| 2026-05-07 02:23 | 19.43267 | -99.08498 | 7301 ft | 1 kts | 326° |
| 2026-05-07 02:24 | 19.43261 | -99.08494 | 7301 ft | 1 kts | 326° |
| 2026-05-07 02:24 | 19.43254 | -99.08489 | 7301 ft | 1 kts | 326° |
| 2026-05-07 02:24 | 19.43248 | -99.08484 | 7301 ft | 1 kts | 326° |
| 2026-05-07 02:24 | 19.43241 | -99.08480 | 7301 ft | 1 kts | 319° |
| 2026-05-07 02:25 | 19.43235 | -99.08474 | 7301 ft | 1 kts | 307° |
| 2026-05-07 02:25 | 19.43231 | -99.08467 | 7300 ft | 1 kts | 293° |
| 2026-05-07 02:25 | 19.43228 | -99.08461 | 7300 ft | 1 kts | 279° |
| 2026-05-07 02:25 | 19.43227 | -99.08453 | 7301 ft | 1 kts | 262° |
| 2026-05-07 02:26 | 19.43228 | -99.08445 | 7301 ft | 1 kts | 239° |
| 2026-05-07 02:26 | 19.43229 | -99.08444 | 7301 ft | 0 kts | 239° |
| 2026-05-07 02:34 | 19.43225 | -99.08451 | 7301 ft | 7 kts | 240° |
| 2026-05-07 02:34 | 19.43204 | -99.08490 | 7300 ft | 11 kts | 240° |
| 2026-05-07 02:35 | 19.43161 | -99.08566 | 7301 ft | 13 kts | 238° |
| 2026-05-07 02:35 | 19.43115 | -99.08659 | 7301 ft | 15 kts | 249° |
| 2026-05-07 02:35 | 19.43057 | -99.08759 | 7300 ft | 17 kts | 238° |
| 2026-05-07 02:35 | 19.42992 | -99.08869 | 7300 ft | 18 kts | 239° |
| 2026-05-07 02:36 | 19.42927 | -99.08985 | 7301 ft | 16 kts | 239° |
| 2026-05-07 02:36 | 19.42919 | -99.08997 | 7301 ft | 2 kts | 234° |
| 2026-05-07 02:36 | 19.42906 | -99.09016 | 7301 ft | 5 kts | 229° |
| 2026-05-07 02:36 | 19.42866 | -99.09048 | 7300 ft | 17 kts | 211° |
| 2026-05-07 02:37 | 19.42777 | -99.09064 | 7301 ft | 0 kts | 139° |
| 2026-05-07 02:37 | 19.42794 | -99.08986 | 7301 ft | 23 kts | 60° |
| 2026-05-07 02:37 | 19.42976 | -99.08656 | 7301 ft | 78 kts | 56° |
| 2026-05-07 02:37 | 19.43348 | -99.08034 | 7303 ft | 120 kts | 59° |
| 2026-05-07 02:38 | 19.43824 | -99.07155 | 7302 ft | 154 kts | 59° |
| 2026-05-07 02:38 | 19.44390 | -99.06100 | 7441 ft | 169 kts | 61° |
| 2026-05-07 02:38 | 19.44997 | -99.05007 | 7765 ft | 174 kts | 57° |
| 2026-05-07 02:38 | 19.45687 | -99.03934 | 8166 ft | 178 kts | 55° |
| 2026-05-07 02:39 | 19.46479 | -99.02830 | 8320 ft | 208 kts | 54° |
| 2026-05-07 02:39 | 19.47422 | -99.01497 | 8669 ft | 239 kts | 56° |
| 2026-05-07 02:39 | 19.48341 | -99.00025 | 9514 ft | 237 kts | 60° |
| 2026-05-07 02:39 | 19.49137 | -98.98535 | 10357 ft | 231 kts | 64° |
| 2026-05-07 02:40 | 19.49834 | -98.97003 | 11135 ft | 232 kts | 68° |
| 2026-05-07 02:40 | 19.50455 | -98.95398 | 11814 ft | 238 kts | 71° |
| 2026-05-07 02:40 | 19.51025 | -98.93797 | 12837 ft | 211 kts | 73° |
| 2026-05-07 02:40 | 19.51508 | -98.92482 | 14095 ft | 184 kts | 70° |
| 2026-05-07 02:41 | 19.51876 | -98.91088 | 14178 ft | 208 kts | 88° |
| 2026-05-07 02:41 | 19.51919 | -98.89539 | 14544 ft | 210 kts | 97° |
| 2026-05-07 02:41 | 19.51814 | -98.88015 | 15056 ft | 211 kts | 99° |
| 2026-05-07 02:41 | 19.51642 | -98.86366 | 15100 ft | 238 kts | 100° |
| 2026-05-07 02:42 | 19.51433 | -98.84542 | 15253 ft | 260 kts | 100° |
| 2026-05-07 02:42 | 19.51176 | -98.82564 | 15371 ft | 282 kts | 101° |
| 2026-05-07 02:42 | 19.50890 | -98.80423 | 15542 ft | 304 kts | 101° |
| 2026-05-07 02:42 | 19.50624 | -98.78118 | 15705 ft | 326 kts | 99° |
| 2026-05-07 02:43 | 19.50371 | -98.75648 | 15874 ft | 347 kts | 98° |
| 2026-05-07 02:43 | 19.50117 | -98.73033 | 16046 ft | 366 kts | 98° |
| 2026-05-07 02:43 | 19.49865 | -98.70312 | 16574 ft | 371 kts | 98° |
| 2026-05-07 02:43 | 19.49616 | -98.67588 | 17344 ft | 373 kts | 98° |
| 2026-05-07 02:44 | 19.49365 | -98.64843 | 18074 ft | 376 kts | 98° |
| 2026-05-07 02:44 | 19.49112 | -98.62082 | 18702 ft | 379 kts | 98° |
| 2026-05-07 02:44 | 19.48853 | -98.59271 | 19202 ft | 386 kts | 98° |
| 2026-05-07 02:44 | 19.48591 | -98.56429 | 19762 ft | 390 kts | 97° |
| 2026-05-07 02:45 | 19.48324 | -98.53551 | 20286 ft | 397 kts | 97° |
| 2026-05-07 02:45 | 19.48034 | -98.50583 | 20437 ft | 413 kts | 98° |
| 2026-05-07 02:45 | 19.47705 | -98.47501 | 20623 ft | 427 kts | 98° |
| 2026-05-07 02:45 | 19.47347 | -98.44400 | 21608 ft | 405 kts | 99° |
| 2026-05-07 02:46 | 19.47001 | -98.41520 | 23310 ft | 383 kts | 99° |
| 2026-05-07 02:46 | 19.46747 | -98.38788 | 24465 ft | 365 kts | 96° |
| 2026-05-07 02:46 | 19.46564 | -98.36110 | 25006 ft | 366 kts | 96° |
| 2026-05-07 02:46 | 19.46369 | -98.33376 | 25079 ft | 379 kts | 97° |
| 2026-05-07 02:47 | 19.46135 | -98.30538 | 25088 ft | 395 kts | 97° |
| 2026-05-07 02:47 | 19.45868 | -98.27588 | 25092 ft | 410 kts | 97° |
| 2026-05-07 02:47 | 19.45578 | -98.24539 | 25120 ft | 423 kts | 98° |
| 2026-05-07 02:47 | 19.45274 | -98.21395 | 25224 ft | 433 kts | 98° |
| 2026-05-07 02:48 | 19.44965 | -98.18202 | 25486 ft | 437 kts | 98° |
| 2026-05-07 02:48 | 19.44653 | -98.14986 | 25807 ft | 440 kts | 98° |
| 2026-05-07 02:48 | 19.44341 | -98.11758 | 26118 ft | 442 kts | 98° |
| 2026-05-07 02:48 | 19.44025 | -98.08508 | 26435 ft | 445 kts | 98° |
| 2026-05-07 02:49 | 19.43708 | -98.05244 | 26749 ft | 447 kts | 98° |
| 2026-05-07 02:49 | 19.43388 | -98.01959 | 27056 ft | 449 kts | 98° |
| 2026-05-07 02:49 | 19.43068 | -97.98655 | 27350 ft | 452 kts | 98° |
| 2026-05-07 02:49 | 19.42751 | -97.95337 | 27681 ft | 453 kts | 97° |
| 2026-05-07 02:50 | 19.42435 | -97.92014 | 28006 ft | 454 kts | 97° |
| 2026-05-07 02:50 | 19.42117 | -97.88676 | 28273 ft | 457 kts | 97° |
| 2026-05-07 02:50 | 19.41795 | -97.85320 | 28541 ft | 459 kts | 97° |
| 2026-05-07 02:50 | 19.41472 | -97.81943 | 28815 ft | 461 kts | 97° |
| 2026-05-07 02:51 | 19.41147 | -97.78559 | 29080 ft | 464 kts | 97° |
| 2026-05-07 02:51 | 19.40817 | -97.75145 | 29336 ft | 466 kts | 98° |
| 2026-05-07 02:51 | 19.40485 | -97.71733 | 29598 ft | 468 kts | 98° |
| 2026-05-07 02:51 | 19.40150 | -97.68297 | 29867 ft | 470 kts | 98° |
| 2026-05-07 02:52 | 19.39813 | -97.64843 | 30103 ft | 472 kts | 98° |
| 2026-05-07 02:52 | 19.39474 | -97.61379 | 30321 ft | 474 kts | 98° |
| 2026-05-07 02:52 | 19.39133 | -97.57899 | 30564 ft | 475 kts | 97° |
| 2026-05-07 02:52 | 19.38792 | -97.54417 | 30843 ft | 476 kts | 97° |
| 2026-05-07 02:53 | 19.38448 | -97.50919 | 31081 ft | 478 kts | 97° |
| 2026-05-07 02:53 | 19.38103 | -97.47416 | 31379 ft | 478 kts | 97° |
| 2026-05-07 02:53 | 19.37764 | -97.43959 | 31698 ft | 478 kts | 97° |
| 2026-05-07 02:53 | 19.37416 | -97.40429 | 32031 ft | 477 kts | 97° |
| 2026-05-07 02:54 | 19.37074 | -97.36978 | 32344 ft | 476 kts | 97° |
| 2026-05-07 02:54 | 19.36728 | -97.33489 | 32650 ft | 476 kts | 97° |
| 2026-05-07 02:54 | 19.36381 | -97.30015 | 32958 ft | 475 kts | 97° |
| 2026-05-07 02:54 | 19.36033 | -97.26527 | 33255 ft | 475 kts | 97° |
| 2026-05-07 02:55 | 19.35685 | -97.23055 | 33561 ft | 474 kts | 98° |
| 2026-05-07 02:55 | 19.35333 | -97.19542 | 33848 ft | 474 kts | 98° |
| 2026-05-07 02:55 | 19.34989 | -97.16119 | 34107 ft | 473 kts | 98° |
| 2026-05-07 02:55 | 19.34642 | -97.12676 | 34307 ft | 473 kts | 98° |
| 2026-05-07 02:56 | 19.34299 | -97.09266 | 34514 ft | 473 kts | 97° |
| 2026-05-07 02:56 | 19.33948 | -97.05776 | 34729 ft | 473 kts | 97° |
| 2026-05-07 02:56 | 19.33772 | -97.02252 | 34922 ft | 474 kts | 92° |
| 2026-05-07 02:56 | 19.33723 | -96.98768 | 34958 ft | 475 kts | 92° |
| 2026-05-07 02:57 | 19.33611 | -96.91797 | 34962 ft | 476 kts | 92° |
| 2026-05-07 02:57 | 19.33490 | -96.84762 | 34963 ft | 475 kts | 92° |
| 2026-05-07 02:58 | 19.33366 | -96.77812 | 34910 ft | 475 kts | 92° |
| 2026-05-07 02:58 | 19.33239 | -96.70831 | 34914 ft | 474 kts | 92° |
| 2026-05-07 02:59 | 19.33109 | -96.63833 | 34870 ft | 472 kts | 92° |
| 2026-05-07 02:59 | 19.32978 | -96.56885 | 34870 ft | 472 kts | 92° |
| 2026-05-07 03:00 | 19.32845 | -96.49981 | 34840 ft | 472 kts | 92° |
| 2026-05-07 03:00 | 19.32709 | -96.43024 | 34831 ft | 472 kts | 92° |
| 2026-05-07 03:01 | 19.32570 | -96.36074 | 34814 ft | 472 kts | 92° |
| 2026-05-07 03:01 | 19.32428 | -96.29126 | 34850 ft | 474 kts | 92° |
| 2026-05-07 03:02 | 19.32282 | -96.22101 | 34824 ft | 479 kts | 92° |
| 2026-05-07 03:02 | 19.32134 | -96.15096 | 34821 ft | 474 kts | 92° |
| 2026-05-07 03:03 | 19.31984 | -96.08129 | 34816 ft | 472 kts | 92° |
| 2026-05-07 03:03 | 19.31832 | -96.01208 | 34819 ft | 470 kts | 92° |
| 2026-05-07 03:04 | 19.31678 | -95.94294 | 34817 ft | 471 kts | 92° |
| 2026-05-07 03:04 | 19.31520 | -95.87348 | 34816 ft | 472 kts | 92° |
| 2026-05-07 03:05 | 19.31360 | -95.80400 | 34818 ft | 471 kts | 92° |
| 2026-05-07 03:05 | 19.31198 | -95.73469 | 34818 ft | 470 kts | 92° |
| 2026-05-07 03:06 | 19.31107 | -95.69637 | 34817 ft | 473 kts | 93° |
| 2026-05-07 03:06 | 19.30947 | -95.62922 | 34816 ft | 470 kts | 93° |
| 2026-05-07 03:07 | 19.30781 | -95.56003 | 34818 ft | 471 kts | 92° |
| 2026-05-07 03:07 | 19.30609 | -95.49068 | 34813 ft | 472 kts | 93° |
| 2026-05-07 03:08 | 19.30434 | -95.42145 | 34819 ft | 471 kts | 93° |
| 2026-05-07 03:08 | 19.30256 | -95.35226 | 34817 ft | 470 kts | 93° |
| 2026-05-07 03:09 | 19.30076 | -95.28310 | 34817 ft | 469 kts | 92° |
| 2026-05-07 03:09 | 19.29894 | -95.21390 | 34818 ft | 470 kts | 93° |
| 2026-05-07 03:10 | 19.29710 | -95.14483 | 34820 ft | 470 kts | 93° |
| 2026-05-07 03:10 | 19.29525 | -95.07576 | 34822 ft | 470 kts | 93° |
| 2026-05-07 03:11 | 19.29432 | -95.00660 | 34820 ft | 470 kts | 91° |
| 2026-05-07 03:11 | 19.29503 | -94.93734 | 34821 ft | 470 kts | 90° |
| 2026-05-07 03:12 | 19.29557 | -94.86800 | 34819 ft | 470 kts | 90° |
| 2026-05-07 03:12 | 19.29592 | -94.79881 | 34821 ft | 471 kts | 91° |
| 2026-05-07 03:13 | 19.29619 | -94.72959 | 34823 ft | 472 kts | 91° |
| 2026-05-07 03:13 | 19.29644 | -94.66074 | 34825 ft | 471 kts | 91° |
| 2026-05-07 03:14 | 19.29664 | -94.59117 | 35078 ft | 469 kts | 91° |
| 2026-05-07 03:14 | 19.29682 | -94.52224 | 34854 ft | 468 kts | 91° |
| 2026-05-07 03:15 | 19.29691 | -94.48791 | 34830 ft | 471 kts | 91° |
| 2026-05-07 03:15 | 19.29704 | -94.41811 | 34829 ft | 477 kts | 91° |
| 2026-05-07 03:16 | 19.29716 | -94.34813 | 34829 ft | 474 kts | 91° |
| 2026-05-07 03:16 | 19.29726 | -94.27816 | 34827 ft | 475 kts | 91° |
| 2026-05-07 03:17 | 19.29732 | -94.20811 | 34831 ft | 476 kts | 91° |
| 2026-05-07 03:17 | 19.29736 | -94.13812 | 34831 ft | 475 kts | 91° |
| 2026-05-07 03:18 | 19.29737 | -94.06829 | 34833 ft | 475 kts | 91° |
| 2026-05-07 03:18 | 19.29736 | -94.00973 | 34836 ft | 474 kts | 91° |
| 2026-05-07 03:19 | 19.29732 | -93.94000 | 34830 ft | 474 kts | 91° |
| 2026-05-07 03:19 | 19.29725 | -93.87024 | 34840 ft | 473 kts | 91° |
| 2026-05-07 03:20 | 19.29716 | -93.80047 | 34827 ft | 474 kts | 91° |
| 2026-05-07 03:20 | 19.29704 | -93.73074 | 34825 ft | 474 kts | 91° |
| 2026-05-07 03:21 | 19.29691 | -93.66097 | 34810 ft | 475 kts | 91° |
| 2026-05-07 03:21 | 19.29673 | -93.59122 | 34831 ft | 474 kts | 91° |
| 2026-05-07 03:22 | 19.29653 | -93.52132 | 34834 ft | 475 kts | 91° |
| 2026-05-07 03:22 | 19.29631 | -93.45142 | 34842 ft | 475 kts | 91° |
| 2026-05-07 03:23 | 19.29606 | -93.38145 | 34840 ft | 476 kts | 91° |
| 2026-05-07 03:23 | 19.29577 | -93.31138 | 34844 ft | 476 kts | 91° |
| 2026-05-07 03:24 | 19.29547 | -93.24136 | 34834 ft | 477 kts | 92° |
| 2026-05-07 03:24 | 19.29513 | -93.17119 | 34856 ft | 476 kts | 92° |
| 2026-05-07 03:25 | 19.29477 | -93.10105 | 34852 ft | 477 kts | 91° |
| 2026-05-07 03:25 | 19.29439 | -93.03091 | 34872 ft | 476 kts | 92° |
| 2026-05-07 03:26 | 19.29399 | -92.96089 | 34857 ft | 476 kts | 92° |
| 2026-05-07 03:26 | 19.29355 | -92.89076 | 34862 ft | 476 kts | 92° |
| 2026-05-07 03:27 | 19.29309 | -92.82117 | 34852 ft | 476 kts | 92° |
| 2026-05-07 03:27 | 19.29260 | -92.75128 | 34858 ft | 475 kts | 92° |
| 2026-05-07 03:28 | 19.29208 | -92.68127 | 34858 ft | 475 kts | 92° |
| 2026-05-07 03:28 | 19.29152 | -92.61141 | 34862 ft | 474 kts | 92° |
| 2026-05-07 03:29 | 19.29096 | -92.54163 | 34855 ft | 474 kts | 91° |
| 2026-05-07 03:29 | 19.29037 | -92.47195 | 34853 ft | 474 kts | 92° |
| 2026-05-07 03:30 | 19.28975 | -92.40211 | 34851 ft | 474 kts | 92° |
| 2026-05-07 03:30 | 19.28909 | -92.33237 | 34855 ft | 473 kts | 92° |
| 2026-05-07 03:31 | 19.28842 | -92.26266 | 34860 ft | 473 kts | 92° |
| 2026-05-07 03:31 | 19.28772 | -92.19297 | 34858 ft | 473 kts | 92° |
| 2026-05-07 03:32 | 19.28699 | -92.12334 | 34863 ft | 474 kts | 92° |
| 2026-05-07 03:32 | 19.28623 | -92.05354 | 34855 ft | 474 kts | 92° |
| 2026-05-07 03:33 | 19.28545 | -91.98405 | 34866 ft | 474 kts | 92° |
| 2026-05-07 03:33 | 19.28464 | -91.91405 | 34868 ft | 474 kts | 92° |
| 2026-05-07 03:34 | 19.28381 | -91.84420 | 34876 ft | 474 kts | 92° |
| 2026-05-07 03:34 | 19.28295 | -91.77429 | 34877 ft | 475 kts | 92° |
| 2026-05-07 03:35 | 19.28206 | -91.70438 | 34882 ft | 475 kts | 92° |
| 2026-05-07 03:35 | 19.28114 | -91.63444 | 34873 ft | 476 kts | 92° |
| 2026-05-07 03:36 | 19.28019 | -91.56446 | 34888 ft | 476 kts | 92° |
| 2026-05-07 03:36 | 19.27921 | -91.49445 | 34887 ft | 476 kts | 92° |
| 2026-05-07 03:37 | 19.27820 | -91.42441 | 34901 ft | 476 kts | 92° |
| 2026-05-07 03:37 | 19.27720 | -91.35433 | 34894 ft | 476 kts | 92° |
| 2026-05-07 03:38 | 19.27616 | -91.28424 | 34888 ft | 476 kts | 92° |
| 2026-05-07 03:38 | 19.27508 | -91.21415 | 34901 ft | 477 kts | 92° |
| 2026-05-07 03:39 | 19.27397 | -91.14404 | 34902 ft | 476 kts | 92° |
| 2026-05-07 03:39 | 19.27282 | -91.07436 | 34915 ft | 476 kts | 92° |
| 2026-05-07 03:40 | 19.27167 | -91.00432 | 34913 ft | 476 kts | 92° |
| 2026-05-07 03:40 | 19.27049 | -90.93392 | 34912 ft | 476 kts | 92° |
| 2026-05-07 03:41 | 19.26928 | -90.86425 | 34912 ft | 476 kts | 92° |
| 2026-05-07 03:41 | 19.26805 | -90.79435 | 34916 ft | 475 kts | 92° |
| 2026-05-07 03:42 | 19.26678 | -90.72439 | 34918 ft | 475 kts | 92° |
| 2026-05-07 03:42 | 19.26549 | -90.65452 | 34926 ft | 474 kts | 92° |
| 2026-05-07 03:43 | 19.26418 | -90.58469 | 34919 ft | 475 kts | 92° |
| 2026-05-07 03:43 | 19.26284 | -90.51487 | 34916 ft | 474 kts | 92° |
| 2026-05-07 03:44 | 19.26146 | -90.44463 | 34922 ft | 474 kts | 92° |
| 2026-05-07 03:44 | 19.26008 | -90.37529 | 34922 ft | 474 kts | 92° |
| 2026-05-07 03:45 | 19.25866 | -90.30552 | 34941 ft | 474 kts | 92° |
| 2026-05-07 03:45 | 19.25721 | -90.23566 | 34936 ft | 475 kts | 92° |
| 2026-05-07 03:46 | 19.25574 | -90.16585 | 34940 ft | 475 kts | 92° |
| 2026-05-07 03:46 | 19.25424 | -90.09602 | 34942 ft | 475 kts | 92° |
| 2026-05-07 03:47 | 19.25271 | -90.02607 | 34953 ft | 475 kts | 92° |
| 2026-05-07 03:47 | 19.25116 | -89.95618 | 34971 ft | 475 kts | 93° |
| 2026-05-07 03:48 | 19.24958 | -89.88633 | 34977 ft | 475 kts | 92° |
| 2026-05-07 03:48 | 19.24798 | -89.81646 | 34971 ft | 475 kts | 92° |
| 2026-05-07 03:49 | 19.24635 | -89.74667 | 34958 ft | 475 kts | 92° |
| 2026-05-07 03:49 | 19.24470 | -89.67685 | 34974 ft | 474 kts | 93° |
| 2026-05-07 03:50 | 19.24305 | -89.60719 | 34968 ft | 474 kts | 92° |
| 2026-05-07 03:50 | 19.24349 | -89.53747 | 34977 ft | 474 kts | 85° |
| 2026-05-07 03:51 | 19.25672 | -89.46905 | 34970 ft | 476 kts | 74° |
| 2026-05-07 03:51 | 19.27550 | -89.40190 | 34973 ft | 476 kts | 75° |
| 2026-05-07 03:52 | 19.29409 | -89.33476 | 34969 ft | 476 kts | 75° |
| 2026-05-07 03:52 | 19.31268 | -89.26750 | 34964 ft | 476 kts | 75° |
| 2026-05-07 03:53 | 19.33123 | -89.20032 | 34988 ft | 475 kts | 75° |
| 2026-05-07 03:53 | 19.34976 | -89.13311 | 34987 ft | 475 kts | 75° |
| 2026-05-07 03:54 | 19.36825 | -89.06593 | 34987 ft | 475 kts | 75° |
| 2026-05-07 03:54 | 19.38672 | -88.99874 | 34965 ft | 475 kts | 75° |
| 2026-05-07 03:54 | 19.39592 | -88.96522 | 34733 ft | 475 kts | 75° |
| 2026-05-07 03:55 | 19.40517 | -88.93151 | 34250 ft | 475 kts | 75° |
| 2026-05-07 03:55 | 19.41431 | -88.89821 | 33633 ft | 468 kts | 75° |
| 2026-05-07 03:55 | 19.42333 | -88.86534 | 33010 ft | 463 kts | 75° |
| 2026-05-07 03:55 | 19.43232 | -88.83247 | 32436 ft | 464 kts | 75° |
| 2026-05-07 03:56 | 19.44133 | -88.79953 | 31815 ft | 467 kts | 75° |
| 2026-05-07 03:56 | 19.45038 | -88.76642 | 31103 ft | 469 kts | 75° |
| 2026-05-07 03:56 | 19.45948 | -88.73310 | 30354 ft | 471 kts | 75° |
| 2026-05-07 03:56 | 19.46858 | -88.69977 | 29611 ft | 470 kts | 75° |
| 2026-05-07 03:57 | 19.47758 | -88.66680 | 29145 ft | 462 kts | 75° |
| 2026-05-07 03:57 | 19.48643 | -88.63435 | 28590 ft | 456 kts | 75° |
| 2026-05-07 03:57 | 19.49517 | -88.60226 | 28049 ft | 450 kts | 75° |
| 2026-05-07 03:57 | 19.50379 | -88.57061 | 27517 ft | 445 kts | 75° |
| 2026-05-07 03:58 | 19.51230 | -88.53929 | 26954 ft | 440 kts | 75° |
| 2026-05-07 03:58 | 19.52073 | -88.50828 | 26437 ft | 435 kts | 75° |
| 2026-05-07 03:58 | 19.52906 | -88.47758 | 25894 ft | 431 kts | 75° |
| 2026-05-07 03:58 | 19.53729 | -88.44726 | 25409 ft | 426 kts | 75° |
| 2026-05-07 03:59 | 19.54541 | -88.41731 | 24905 ft | 421 kts | 75° |
| 2026-05-07 03:59 | 19.55347 | -88.38757 | 24395 ft | 417 kts | 75° |
| 2026-05-07 03:59 | 19.56140 | -88.35830 | 24112 ft | 409 kts | 75° |
| 2026-05-07 03:59 | 19.56925 | -88.32929 | 24017 ft | 412 kts | 75° |
| 2026-05-07 04:00 | 19.57708 | -88.30030 | 23996 ft | 415 kts | 75° |
| 2026-05-07 04:00 | 19.58511 | -88.27055 | 23995 ft | 414 kts | 75° |
| 2026-05-07 04:00 | 19.59289 | -88.24174 | 23995 ft | 414 kts | 76° |
| 2026-05-07 04:00 | 19.59827 | -88.22183 | 23996 ft | 414 kts | 76° |
| 2026-05-07 04:01 | 19.60875 | -88.18295 | 23995 ft | 414 kts | 75° |
| 2026-05-07 04:01 | 19.61409 | -88.16314 | 23996 ft | 414 kts | 75° |
| 2026-05-07 04:01 | 19.62197 | -88.13389 | 23996 ft | 414 kts | 76° |
| 2026-05-07 04:01 | 19.62987 | -88.10455 | 23995 ft | 414 kts | 76° |
| 2026-05-07 04:02 | 19.63766 | -88.07558 | 23996 ft | 413 kts | 76° |
| 2026-05-07 04:02 | 19.64555 | -88.04625 | 23996 ft | 413 kts | 76° |
| 2026-05-07 04:02 | 19.65339 | -88.01704 | 23999 ft | 413 kts | 76° |
| 2026-05-07 04:02 | 19.66128 | -87.98767 | 23999 ft | 413 kts | 76° |
| 2026-05-07 04:03 | 19.66913 | -87.95840 | 23996 ft | 413 kts | 76° |
| 2026-05-07 04:03 | 19.67699 | -87.92907 | 23999 ft | 413 kts | 76° |
| 2026-05-07 04:03 | 19.68483 | -87.89978 | 23999 ft | 413 kts | 76° |
| 2026-05-07 04:03 | 19.69269 | -87.87044 | 23999 ft | 413 kts | 76° |
| 2026-05-07 04:04 | 19.70051 | -87.84118 | 24002 ft | 413 kts | 76° |
| 2026-05-07 04:04 | 19.70836 | -87.81184 | 23999 ft | 413 kts | 76° |
| 2026-05-07 04:04 | 19.71618 | -87.78253 | 23999 ft | 413 kts | 76° |
| 2026-05-07 04:04 | 19.72401 | -87.75321 | 23998 ft | 413 kts | 76° |
| 2026-05-07 04:05 | 19.73182 | -87.72393 | 23998 ft | 413 kts | 76° |
| 2026-05-07 04:05 | 19.73955 | -87.69494 | 24001 ft | 411 kts | 76° |
| 2026-05-07 04:05 | 19.74727 | -87.66597 | 24002 ft | 409 kts | 76° |
| 2026-05-07 04:05 | 19.75504 | -87.63677 | 24002 ft | 411 kts | 76° |
| 2026-05-07 04:06 | 19.76280 | -87.60758 | 23999 ft | 410 kts | 76° |
| 2026-05-07 04:06 | 19.77055 | -87.57842 | 24001 ft | 411 kts | 76° |
| 2026-05-07 04:06 | 19.77828 | -87.54931 | 24004 ft | 410 kts | 76° |
| 2026-05-07 04:06 | 19.78603 | -87.52012 | 24005 ft | 412 kts | 76° |
| 2026-05-07 04:07 | 19.79381 | -87.49076 | 24004 ft | 413 kts | 76° |
| 2026-05-07 04:07 | 19.80159 | -87.46140 | 24004 ft | 413 kts | 76° |
| 2026-05-07 04:07 | 19.81020 | -87.43233 | 24004 ft | 413 kts | 71° |
| 2026-05-07 04:07 | 19.82200 | -87.40448 | 24004 ft | 415 kts | 64° |
| 2026-05-07 04:08 | 19.83695 | -87.37822 | 24005 ft | 417 kts | 57° |
| 2026-05-07 04:08 | 19.85408 | -87.35342 | 23953 ft | 414 kts | 56° |
| 2026-05-07 04:08 | 19.87100 | -87.32906 | 23807 ft | 407 kts | 56° |
| 2026-05-07 04:08 | 19.88759 | -87.30509 | 23588 ft | 398 kts | 56° |
| 2026-05-07 04:09 | 19.90378 | -87.28164 | 23330 ft | 391 kts | 56° |
| 2026-05-07 04:09 | 19.91982 | -87.25834 | 23077 ft | 391 kts | 56° |
| 2026-05-07 04:09 | 19.93594 | -87.23492 | 22818 ft | 393 kts | 56° |
| 2026-05-07 04:09 | 19.95204 | -87.21157 | 22572 ft | 391 kts | 56° |
| 2026-05-07 04:10 | 19.96802 | -87.18840 | 22318 ft | 387 kts | 56° |
| 2026-05-07 04:10 | 19.98393 | -87.16535 | 22073 ft | 385 kts | 56° |
| 2026-05-07 04:10 | 19.99966 | -87.14252 | 21824 ft | 384 kts | 56° |
| 2026-05-07 04:10 | 20.01542 | -87.11963 | 21581 ft | 382 kts | 56° |
| 2026-05-07 04:11 | 20.03109 | -87.09687 | 21342 ft | 380 kts | 56° |
| 2026-05-07 04:11 | 20.04665 | -87.07426 | 21099 ft | 378 kts | 56° |
| 2026-05-07 04:11 | 20.06216 | -87.05171 | 20863 ft | 377 kts | 56° |
| 2026-05-07 04:11 | 20.07757 | -87.02930 | 20623 ft | 374 kts | 56° |
| 2026-05-07 04:12 | 20.09291 | -87.00698 | 20385 ft | 373 kts | 56° |
| 2026-05-07 04:12 | 20.10820 | -86.98472 | 20156 ft | 371 kts | 55° |
| 2026-05-07 04:12 | 20.12341 | -86.96259 | 20032 ft | 371 kts | 56° |
| 2026-05-07 04:12 | 20.13862 | -86.94042 | 20018 ft | 373 kts | 55° |
| 2026-05-07 04:13 | 20.15385 | -86.91824 | 20014 ft | 369 kts | 56° |
| 2026-05-07 04:13 | 20.16898 | -86.89618 | 20015 ft | 369 kts | 56° |
| 2026-05-07 04:13 | 20.18411 | -86.87412 | 20014 ft | 369 kts | 55° |
| 2026-05-07 04:13 | 20.19929 | -86.85197 | 20016 ft | 371 kts | 56° |
| 2026-05-07 04:14 | 20.21447 | -86.82980 | 20017 ft | 370 kts | 56° |
| 2026-05-07 04:14 | 20.22961 | -86.80773 | 20013 ft | 371 kts | 55° |
| 2026-05-07 04:14 | 20.24499 | -86.78550 | 19829 ft | 371 kts | 55° |
| 2026-05-07 04:14 | 20.26012 | -86.76368 | 19598 ft | 364 kts | 55° |
| 2026-05-07 04:15 | 20.27509 | -86.74211 | 19387 ft | 363 kts | 55° |
| 2026-05-07 04:15 | 20.28996 | -86.72062 | 18995 ft | 354 kts | 55° |
| 2026-05-07 04:15 | 20.30441 | -86.69973 | 18446 ft | 347 kts | 55° |
| 2026-05-07 04:15 | 20.31839 | -86.67949 | 17843 ft | 341 kts | 55° |
| 2026-05-07 04:16 | 20.33232 | -86.65933 | 17221 ft | 335 kts | 54° |
| 2026-05-07 04:16 | 20.34618 | -86.63925 | 16613 ft | 330 kts | 55° |
| 2026-05-07 04:16 | 20.35950 | -86.61996 | 16014 ft | 325 kts | 55° |
| 2026-05-07 04:16 | 20.37504 | -86.60280 | 15437 ft | 322 kts | 35° |
| 2026-05-07 04:17 | 20.39563 | -86.59326 | 14922 ft | 321 kts | 14° |
| 2026-05-07 04:17 | 20.41762 | -86.59305 | 14365 ft | 324 kts | 351° |
| 2026-05-07 04:17 | 20.43937 | -86.59902 | 13805 ft | 322 kts | 348° |
| 2026-05-07 04:17 | 20.46118 | -86.60545 | 13176 ft | 320 kts | 348° |
| 2026-05-07 04:18 | 20.48232 | -86.61169 | 12567 ft | 318 kts | 347° |
| 2026-05-07 04:18 | 20.50345 | -86.61787 | 12158 ft | 310 kts | 348° |
| 2026-05-07 04:18 | 20.52425 | -86.62387 | 12037 ft | 313 kts | 348° |
| 2026-05-07 04:18 | 20.54548 | -86.62996 | 12003 ft | 315 kts | 348° |
| 2026-05-07 04:19 | 20.56658 | -86.63603 | 12003 ft | 313 kts | 348° |
| 2026-05-07 04:19 | 20.58753 | -86.64204 | 12008 ft | 312 kts | 348° |
| 2026-05-07 04:19 | 20.60863 | -86.64810 | 12001 ft | 314 kts | 348° |
| 2026-05-07 04:19 | 20.62972 | -86.65416 | 11976 ft | 315 kts | 348° |
| 2026-05-07 04:20 | 20.65088 | -86.66024 | 11753 ft | 314 kts | 348° |
| 2026-05-07 04:20 | 20.67171 | -86.66626 | 11499 ft | 311 kts | 348° |
| 2026-05-07 04:20 | 20.69262 | -86.67229 | 11146 ft | 310 kts | 348° |
| 2026-05-07 04:21 | 20.73403 | -86.68418 | 10372 ft | 310 kts | 348° |
| 2026-05-07 04:21 | 20.75494 | -86.69020 | 9918 ft | 308 kts | 348° |
| 2026-05-07 04:21 | 20.77545 | -86.69610 | 9424 ft | 305 kts | 348° |
| 2026-05-07 04:21 | 20.79555 | -86.70192 | 9112 ft | 294 kts | 348° |
| 2026-05-07 04:22 | 20.81464 | -86.70776 | 9012 ft | 277 kts | 341° |
| 2026-05-07 04:22 | 20.83041 | -86.71847 | 9017 ft | 270 kts | 316° |
| 2026-05-07 04:22 | 20.84213 | -86.73493 | 9000 ft | 282 kts | 305° |
| 2026-05-07 04:22 | 20.85292 | -86.75211 | 8835 ft | 277 kts | 304° |
| 2026-05-07 04:23 | 20.86362 | -86.76925 | 8377 ft | 279 kts | 304° |
| 2026-05-07 04:23 | 20.87455 | -86.78672 | 7762 ft | 285 kts | 304° |
| 2026-05-07 04:23 | 20.88568 | -86.80446 | 7161 ft | 291 kts | 304° |
| 2026-05-07 04:23 | 20.89703 | -86.82255 | 6559 ft | 295 kts | 303° |
| 2026-05-07 04:24 | 20.90842 | -86.84068 | 6157 ft | 289 kts | 303° |
| 2026-05-07 04:24 | 20.91930 | -86.85801 | 6035 ft | 272 kts | 303° |
| 2026-05-07 04:24 | 20.92957 | -86.87437 | 5820 ft | 258 kts | 303° |
| 2026-05-07 04:24 | 20.93933 | -86.88998 | 5570 ft | 248 kts | 303° |
| 2026-05-07 04:25 | 20.94872 | -86.90497 | 5325 ft | 238 kts | 303° |
| 2026-05-07 04:25 | 20.95781 | -86.91948 | 5084 ft | 234 kts | 303° |
| 2026-05-07 04:25 | 20.96694 | -86.93406 | 4822 ft | 237 kts | 303° |
| 2026-05-07 04:25 | 20.97595 | -86.94844 | 4557 ft | 227 kts | 303° |
| 2026-05-07 04:26 | 20.98462 | -86.96230 | 4211 ft | 220 kts | 303° |
| 2026-05-07 04:26 | 20.99287 | -86.97547 | 4033 ft | 206 kts | 302° |
| 2026-05-07 04:26 | 21.00041 | -86.98751 | 3997 ft | 182 kts | 302° |
| 2026-05-07 04:26 | 21.00738 | -86.99866 | 4030 ft | 184 kts | 302° |
| 2026-05-07 04:27 | 21.01439 | -87.00991 | 3997 ft | 179 kts | 302° |
| 2026-05-07 04:27 | 21.02126 | -87.02089 | 3801 ft | 178 kts | 302° |
| 2026-05-07 04:27 | 21.02816 | -87.03193 | 3450 ft | 179 kts | 302° |
| 2026-05-07 04:27 | 21.03509 | -87.04303 | 3088 ft | 180 kts | 302° |
| 2026-05-07 04:28 | 21.04193 | -87.05398 | 2744 ft | 179 kts | 302° |
| 2026-05-07 04:28 | 21.04884 | -87.06504 | 2407 ft | 178 kts | 302° |
| 2026-05-07 04:28 | 21.05565 | -87.07596 | 2103 ft | 174 kts | 303° |
| 2026-05-07 04:28 | 21.06230 | -87.08663 | 1989 ft | 173 kts | 303° |
| 2026-05-07 04:29 | 21.06904 | -87.09744 | 2006 ft | 175 kts | 303° |
| 2026-05-07 04:29 | 21.07580 | -87.10827 | 2007 ft | 175 kts | 303° |
| 2026-05-07 04:29 | 21.08255 | -87.11906 | 2007 ft | 175 kts | 303° |
| 2026-05-07 04:29 | 21.08931 | -87.12989 | 2006 ft | 175 kts | 303° |
| 2026-05-07 04:30 | 21.09607 | -87.14074 | 1999 ft | 175 kts | 303° |
| 2026-05-07 04:30 | 21.10282 | -87.15158 | 2000 ft | 175 kts | 303° |
| 2026-05-07 04:30 | 21.10999 | -87.16209 | 1988 ft | 175 kts | 321° |
| 2026-05-07 04:30 | 21.12091 | -87.16668 | 1998 ft | 170 kts | 8° |
| 2026-05-07 04:31 | 21.13077 | -87.16246 | 1994 ft | 140 kts | 56° |
| 2026-05-07 04:31 | 21.13365 | -87.15351 | 2008 ft | 129 kts | 98° |
| 2026-05-07 04:31 | 21.13169 | -87.14431 | 1993 ft | 127 kts | 109° |
| 2026-05-07 04:31 | 21.12986 | -87.13504 | 1993 ft | 127 kts | 105° |
| 2026-05-07 04:32 | 21.12854 | -87.12563 | 1993 ft | 127 kts | 103° |
| 2026-05-07 04:32 | 21.12742 | -87.11627 | 1994 ft | 127 kts | 102° |
| 2026-05-07 04:32 | 21.12633 | -87.10687 | 1994 ft | 127 kts | 103° |
| 2026-05-07 04:32 | 21.12526 | -87.09754 | 1999 ft | 126 kts | 103° |
| 2026-05-07 04:33 | 21.12415 | -87.08835 | 2000 ft | 127 kts | 103° |
| 2026-05-07 04:33 | 21.12299 | -87.07907 | 1999 ft | 127 kts | 102° |
| 2026-05-07 04:33 | 21.12183 | -87.06967 | 1999 ft | 128 kts | 102° |
| 2026-05-07 04:33 | 21.12067 | -87.06023 | 2000 ft | 128 kts | 102° |
| 2026-05-07 04:34 | 21.11950 | -87.05076 | 2000 ft | 128 kts | 102° |
| 2026-05-07 04:34 | 21.11836 | -87.04139 | 2000 ft | 127 kts | 103° |
| 2026-05-07 04:34 | 21.11723 | -87.03202 | 2000 ft | 127 kts | 103° |
| 2026-05-07 04:34 | 21.11608 | -87.02271 | 1999 ft | 125 kts | 103° |
| 2026-05-07 04:35 | 21.11494 | -87.01347 | 2000 ft | 126 kts | 104° |
| 2026-05-07 04:35 | 21.11336 | -87.00433 | 2003 ft | 125 kts | 112° |
| 2026-05-07 04:35 | 21.10994 | -86.99582 | 2000 ft | 124 kts | 121° |
| 2026-05-07 04:35 | 21.10554 | -86.98789 | 1999 ft | 124 kts | 124° |
| 2026-05-07 04:36 | 21.10077 | -86.98010 | 1911 ft | 126 kts | 125° |
| 2026-05-07 04:36 | 21.09593 | -86.97231 | 1748 ft | 125 kts | 124° |
| 2026-05-07 04:36 | 21.09108 | -86.96454 | 1606 ft | 125 kts | 124° |
| 2026-05-07 04:36 | 21.08630 | -86.95685 | 1443 ft | 125 kts | 124° |
| 2026-05-07 04:37 | 21.08435 | -86.95373 | 1397 ft | 134 kts | 124° |
| 2026-05-07 04:37 | 21.07873 | -86.94513 | 1388 ft | 155 kts | 126° |
| 2026-05-07 04:37 | 21.07330 | -86.93590 | 1080 ft | 141 kts | 120° |
| 2026-05-07 04:37 | 21.06837 | -86.92748 | 891 ft | 124 kts | 125° |
| 2026-05-07 04:38 | 21.06357 | -86.92019 | 670 ft | 116 kts | 125° |
| 2026-05-07 04:38 | 21.05844 | -86.91275 | 565 ft | 142 kts | 122° |
| 2026-05-07 04:38 | 21.05285 | -86.90344 | 525 ft | 143 kts | 124° |
| 2026-05-07 04:38 | 21.04776 | -86.89502 | 288 ft | 133 kts | 124° |
| 2026-05-07 04:39 | 21.04273 | -86.88693 | 49 ft | 125 kts | 124° |
| 2026-05-07 04:39 | 21.03874 | -86.88063 | 21 ft | 49 kts | 124° |
| 2026-05-07 04:39 | 21.03835 | -86.88007 | 22 ft | 5 kts | 128° |
| 2026-05-07 04:39 | 21.03813 | -86.87962 | 21 ft | 8 kts | 115° |
| 2026-05-07 04:40 | 21.03779 | -86.87902 | 22 ft | 10 kts | 121° |
| 2026-05-07 04:40 | 21.03741 | -86.87836 | 24 ft | 11 kts | 121° |
| 2026-05-07 04:40 | 21.03674 | -86.87720 | 22 ft | 30 kts | 121° |
| 2026-05-07 04:40 | 21.03607 | -86.87518 | 26 ft | 29 kts | 97° |
| 2026-05-07 04:41 | 21.03595 | -86.87336 | 23 ft | 12 kts | 76° |
| 2026-05-07 04:41 | 21.03690 | -86.87296 | 20 ft | 1 kts | 0° |
| 2026-05-07 04:41 | 21.03704 | -86.87290 | 20 ft | 0 kts | 30° |
| 2026-05-07 04:41 | 21.03726 | -86.87273 | 20 ft | 7 kts | 40° |
| 2026-05-07 04:42 | 21.03757 | -86.87246 | 20 ft | 0 kts | 38° |